Observations for NANTES CHATEAU, France (LFRS)

LFRS 230530Z AUTO 18007KT 5000 BR OVC004 09/09 Q1024 TEMPO 2500 -RADZ   
LFRS 230500Z AUTO 18006KT 9000 OVC004 09/09 Q1024 TEMPO 2500 -RADZ  
LFRS 230430Z AUTO 18006KT 6000 OVC002 08/08 Q1024 TEMPO 2500 -RADZ  
LFRS 230400Z AUTO 17006KT 1900 BR VV/// 07/07 Q1024 TEMPO OVC003
LFRS 230330Z AUTO 17005KT 0550 0450 R03/0650N R21/0700N FG VV/// 07/06 Q1024 TEMPO 2500 -RADZ OVC003
LFRS 230300Z AUTO 18003KT 0700 0550 R03/0800N R21/0900N FG VV/// 06/06 Q1025 TEMPO 2500 -RADZ OVC003
LFRS 230230Z AUTO 16005KT 0550 0500 R03/0800N R21/0650U FG VV/// 06/06 Q1025 TEMPO 2500 -RADZ OVC003
LFRS 230200Z AUTO 16004KT 0550 0500 R03/0750D R21/0700D FG VV/// 06/06 Q1025 BECMG 8000 NSW OVC009  
LFRS 230130Z AUTO 15003KT 0600 0500 R03/0800N R21/0700N FG FEW002 BKN011 OVC120 06/05 Q1025 BECMG 8000 NSW OVC009   
LFRS 230100Z AUTO 17003KT 0600 0500 R03/0800U R21/0750D FG VV/// 06/06 Q1025 BECMG 8000 NSW OVC009  
LFRS 230030Z AUTO 18004KT 1000 0750 R03/1300D R21/1300D BCFG BKN002 OVC006 07/06 Q1025 TEMPO VV/// BECMG 8000 NSW   
LFRS 230000Z AUTO 19004KT 0700 0550 R03/1700D R21/0900U FG OVC002 08/07 Q1025 TEMPO VV///   
LFRS 222330Z AUTO 22006KT 0600 R03/1300D R21/0800U FG VV/// 08/07 Q1025 BECMG 9999 NSW BKN040   
LFRS 222300Z AUTO 19003KT 0650 R03/0750N R21/0700D FG OVC002 07/07 Q1025 TEMPO 1500 BR  
LFRS 222230Z AUTO 22003KT 2300 1300 R03/1800D R21/1600U BR OVC003 07/07 Q1025 NOSIG 
LFRS 222200Z AUTO 24003KT 9999 FEW004 SCT019 07/06 Q1025 TEMPO 2800 BR BKN007   
LFRS 222130Z AUTO 00000KT 9000 NSC 06/06 Q1025 TEMPO 2800 BR BKN007 
LFRS 222100Z AUTO 23004KT CAVOK 07/06 Q1025 NOSIG   
LFRS 222030Z AUTO 25003KT CAVOK 07/07 Q1025 NOSIG   
LFRS 222000Z AUTO VRB03KT CAVOK 07/07 Q1025 NOSIG   
LFRS 221930Z AUTO 26004KT CAVOK 08/07 Q1025 NOSIG   
LFRS 221900Z AUTO 27003KT 9999 FEW033 08/08 Q1024 NOSIG 
LFRS 221830Z AUTO 27004KT 9999 SCT035 09/08 Q1024 NOSIG 
LFRS 221800Z AUTO 27007KT 9999 FEW032 09/08 Q1024 NOSIG 
LFRS 221730Z AUTO 26006KT CAVOK 10/08 Q1023 NOSIG   
LFRS 221700Z AUTO 26006KT 9999 FEW035 10/08 Q1023 NOSIG 
LFRS 221630Z AUTO 27009KT 9999 BKN036 12/09 Q1022 NOSIG 
LFRS 221600Z AUTO 29010KT 9999 BKN039 13/08 Q1022 NOSIG 
LFRS 221530Z AUTO 28009KT 250V310 9999 FEW029 OVC039 13/08 Q1021 NOSIG  
LFRS 221500Z AUTO 29011KT 260V320 9999 FEW032 OVC038 13/08 Q1021 NOSIG  
LFRS 221430Z AUTO 30011KT 9999 SCT030 OVC036 13/08 Q1021 NOSIG  
LFRS 221400Z AUTO 31011KT 270V340 9999 BKN033 BKN039 13/08 Q1020 NOSIG  
LFRS 221330Z AUTO 31009KT 280V340 9999 BKN032 OVC039 13/09 Q1020 NOSIG  
LFRS 221300Z AUTO 31013KT 280V340 9999 SCT026 BKN035 13/08 Q1019 TEMPO 28015G30KT   
LFRS 221230Z AUTO 31015G26KT 270V330 9999 BKN025 BKN030 OVC037 12/09 Q1019 BECMG 30012KT
LFRS 221200Z AUTO 30017KT 250V320 9999 BKN030 OVC039 12/09 Q1018 BECMG 28015G30KT   
LFRS 221130Z AUTO 28019KT 9999 FEW023 SCT029 OVC041 12/09 Q1017 BECMG 28015G30KT
LFRS 221100Z AUTO 28019KT 9999 BKN023 BKN029 OVC036 12/09 Q1017 BECMG 28015G30KT
LFRS 221030Z AUTO 28020KT 9999 BKN019 13/10 Q1017 BECMG 28015G30KT  
LFRS 220900Z AUTO 26019G29KT 230V290 9999 BKN011 OVC018 13/12 Q1016 BECMG 27025G40KT BKN016 
LFRS 220830Z AUTO 27020G32KT 9999 BKN008 OVC012 13/12 Q1016 BECMG BKN016
LFRS 220800Z AUTO 25017KT 4200 BR OVC005 12/12 Q1015 BECMG 27025G40KT 9999 NSW BKN016   
LFRS 220730Z AUTO 25019KT 220V280 5000 2200 BR OVC004 12/12 Q1015 BECMG 27025G40KT BKN016   
LFRS 220700Z AUTO 24015KT 4100 BR OVC004 12/11 Q1016 BECMG 27025G40KT 9999 NSW BKN013   
LFRS 220630Z AUTO 25016G27KT 3800 -RA BR OVC006 12/11 Q1016 BECMG 27025G40KT 9999 NSW BKN013
LFRS 220600Z AUTO 25015KT 9999 OVC007 12/11 Q1016 TEMPO 2500 -RADZ BECMG 27025G40KT BKN013  
LFRS 220530Z AUTO 25016G28KT 220V280 6000 OVC007 12/11 Q1017 BECMG 27025G40KT BKN013
LFRS 220500Z AUTO 26017KT 9999 OVC005 12/12 Q1017 TEMPO 2500 -DZRA BECMG 27025G40KT BKN013